createdAt,value
2018-11-23T00:02:39.196Z,24.85
2018-11-23T00:05:44.065Z,24.92
2018-11-23T00:08:54.349Z,17.62
2018-11-23T00:11:58.680Z,18.40
2018-11-23T00:15:03.456Z,14.18
2018-11-23T00:18:08.103Z,9.13
2018-11-23T00:21:14.803Z,14.28
2018-11-23T00:24:19.203Z,16.60
2018-11-23T00:27:23.864Z,20.30
2018-11-23T00:30:28.929Z,22.75
2018-11-23T00:33:33.360Z,23.90
2018-11-23T00:36:37.792Z,20.95
2018-11-23T00:39:42.515Z,10.05
2018-11-23T00:42:47.826Z,14.18
2018-11-23T00:45:52.139Z,18.42
2018-11-23T00:48:56.836Z,19.40
2018-11-23T00:52:01.677Z,22.65
2018-11-23T00:55:06.269Z,25.90
2018-11-23T00:58:10.647Z,16.85
2018-11-23T01:01:15.034Z,19.48
2018-11-23T01:04:19.709Z,21.95
2018-11-23T01:07:25.686Z,25.88
2018-11-23T01:10:31.042Z,25.27
2018-11-23T01:13:33.811Z,24.80
2018-11-23T01:16:38.531Z,25.15
2018-11-23T01:19:44.445Z,21.45
2018-11-23T01:22:50.067Z,20.80
2018-11-23T01:25:54.456Z,21.17
2018-11-23T01:28:58.850Z,26.15
2018-11-23T01:32:03.242Z,20.55
2018-11-23T01:35:08.863Z,30.02
2018-11-23T01:38:13.210Z,27.80
2018-11-23T01:41:18.463Z,25.45
2018-11-23T01:44:22.929Z,26.00
2018-11-23T01:47:27.643Z,23.35
2018-11-23T01:50:33.514Z,27.45
2018-11-23T01:53:37.928Z,26.37
2018-11-23T01:56:42.287Z,32.78
2018-11-23T01:59:46.912Z,17.73
2018-11-23T02:02:51.387Z,26.70
2018-11-23T02:05:56.138Z,23.65
2018-11-23T02:09:00.881Z,23.67
2018-11-23T02:12:06.149Z,25.25
2018-11-23T02:15:10.662Z,18.90
2018-11-23T02:18:14.677Z,24.80
2018-11-23T02:21:18.982Z,26.05
2018-11-23T02:24:23.591Z,26.90
2018-11-23T02:27:28.297Z,22.67
2018-11-23T02:30:33.347Z,26.12
2018-11-23T02:33:37.987Z,23.27
2018-11-23T02:36:42.431Z,18.75
2018-11-23T02:39:47.177Z,27.48
2018-11-23T02:42:51.655Z,16.73
2018-11-23T02:45:56.009Z,24.52
2018-11-23T02:49:01.272Z,21.07
2018-11-23T02:52:05.781Z,25.23
2018-11-23T02:55:10.332Z,23.70
2018-11-23T02:58:15.045Z,17.35
2018-11-23T03:01:19.404Z,16.65
2018-11-23T03:04:23.984Z,27.52
2018-11-23T03:07:28.332Z,32.25
2018-11-23T03:10:34.127Z,23.85
2018-11-23T03:13:38.572Z,22.90
2018-11-23T03:16:40.231Z,19.87
2018-11-23T03:19:48.596Z,25.72
2018-11-23T03:22:52.931Z,20.25
2018-11-23T03:25:58.165Z,61.92
2018-11-23T03:29:02.604Z,23.40
2018-11-23T03:32:10.175Z,27.73
2018-11-23T03:35:14.738Z,26.30
2018-11-23T03:38:21.825Z,26.60
2018-11-23T03:41:26.434Z,26.50
2018-11-23T03:44:31.742Z,29.52
2018-11-23T03:47:36.334Z,25.17
2018-11-23T03:50:41.135Z,17.32
2018-11-23T03:53:45.656Z,29.80
2018-11-23T03:56:50.196Z,24.00
2018-11-23T03:59:54.547Z,23.15
2018-11-23T04:02:59.037Z,19.45
2018-11-23T04:06:03.509Z,28.60
2018-11-23T04:09:08.020Z,25.65
2018-11-23T04:12:12.563Z,30.30
2018-11-23T04:15:17.456Z,29.42
2018-11-23T04:18:21.852Z,28.05
2018-11-23T04:21:26.210Z,29.50
2018-11-23T04:24:30.600Z,18.92
2018-11-23T04:27:34.944Z,24.92
2018-11-23T04:30:40.366Z,30.43
2018-11-23T04:33:45.574Z,27.37
2018-11-23T04:36:50.056Z,20.90
2018-11-23T04:39:52.766Z,23.12
2018-11-23T04:42:57.449Z,18.23
2018-11-23T04:46:01.950Z,30.12
2018-11-23T04:49:08.307Z,28.80
2018-11-23T04:52:12.975Z,31.27
2018-11-23T04:55:17.328Z,34.15
2018-11-23T04:58:21.866Z,21.70
2018-11-23T05:01:28.512Z,20.97
2018-11-23T05:04:32.837Z,29.27
2018-11-23T05:07:38.933Z,28.92
2018-11-23T05:10:45.389Z,28.80
2018-11-23T05:13:50.138Z,29.18
2018-11-23T05:16:58.395Z,36.93
2018-11-23T05:19:58.846Z,26.48
2018-11-23T05:23:03.492Z,22.32
2018-11-23T05:26:08.128Z,34.08
2018-11-23T05:29:12.719Z,34.20
2018-11-23T05:32:17.532Z,29.92
2018-11-23T05:35:22.629Z,21.02
2018-11-23T05:38:27.227Z,29.55
2018-11-23T05:41:31.641Z,24.95
2018-11-23T05:44:36.961Z,26.23
2018-11-23T05:47:41.414Z,27.17
2018-11-23T05:50:47.597Z,20.75
2018-11-23T05:53:53.016Z,17.55
2018-11-23T05:56:57.614Z,36.65
2018-11-23T06:00:02.242Z,16.37
2018-11-23T06:03:06.756Z,13.50
2018-11-23T06:06:11.209Z,29.45
2018-11-23T06:09:16.517Z,21.45
2018-11-23T06:12:20.894Z,26.95
2018-11-23T06:15:25.385Z,29.95
2018-11-23T06:18:29.988Z,18.77
2018-11-23T06:21:35.524Z,14.87
2018-11-23T06:24:40.901Z,43.28
2018-11-23T06:27:45.376Z,20.75
2018-11-23T06:30:49.936Z,20.43
2018-11-23T06:34:05.305Z,28.70
2018-11-23T06:37:09.716Z,27.37
2018-11-23T06:40:14.232Z,22.22
2018-11-23T06:43:18.693Z,27.73
2018-11-23T06:46:24.379Z,41.65
2018-11-23T06:49:28.779Z,25.10
2018-11-23T06:52:33.290Z,22.17
2018-11-23T06:55:38.032Z,28.87
2018-11-23T06:58:42.750Z,28.30
2018-11-23T07:01:47.217Z,28.38
2018-11-23T07:04:51.756Z,19.00
2018-11-23T07:07:56.364Z,27.27
2018-11-23T07:11:00.794Z,26.23
2018-11-23T07:14:05.380Z,21.48
2018-11-23T07:17:10.979Z,19.20
2018-11-23T07:20:15.676Z,30.48
2018-11-23T07:23:20.601Z,26.48
2018-11-23T07:26:28.130Z,21.20
2018-11-23T07:29:32.611Z,72.80
2018-11-23T07:32:37.211Z,20.43
2018-11-23T07:35:41.951Z,23.40
2018-11-23T07:38:46.332Z,19.40
2018-11-23T07:41:53.274Z,16.65
2018-11-23T07:44:58.878Z,41.23
2018-11-23T07:48:03.783Z,31.27
2018-11-23T07:51:08.149Z,16.27
2018-11-23T07:54:12.875Z,19.35
2018-11-23T07:57:17.425Z,15.53
2018-11-23T08:00:21.871Z,42.33
2018-11-23T08:03:27.431Z,29.52
2018-11-23T08:06:31.972Z,20.68
2018-11-23T08:09:34.894Z,17.67
2018-11-23T08:12:40.229Z,21.90
2018-11-23T08:15:46.630Z,15.65
2018-11-23T08:18:51.201Z,20.62
2018-11-23T08:21:59.740Z,22.05
2018-11-23T08:25:06.957Z,19.48
2018-11-23T08:28:13.565Z,12.55
2018-11-23T08:31:18.190Z,17.87
2018-11-23T08:34:22.899Z,15.50
2018-11-23T08:37:27.254Z,21.25
2018-11-23T08:40:31.662Z,17.55
2018-11-23T08:43:34.173Z,14.53
2018-11-23T08:46:38.576Z,22.52
2018-11-23T08:49:42.835Z,19.57
2018-11-23T08:52:47.191Z,18.25
2018-11-23T08:55:51.729Z,23.07
2018-11-23T08:58:56.682Z,8.83
2018-11-23T09:02:01.151Z,18.12
2018-11-23T09:05:05.488Z,19.17
2018-11-23T09:08:11.305Z,21.80
2018-11-23T09:11:15.716Z,19.85
2018-11-23T09:14:20.404Z,17.45
2018-11-23T09:17:25.277Z,11.05
2018-11-23T09:20:31.051Z,18.73
2018-11-23T09:23:35.549Z,22.02
2018-11-23T09:26:40.180Z,12.68
2018-11-23T09:29:45.113Z,12.10
2018-11-23T09:32:49.971Z,13.35
2018-11-23T09:35:55.732Z,17.23
2018-11-23T09:39:00.042Z,10.13
2018-11-23T09:42:04.527Z,22.30
2018-11-23T09:45:09.177Z,10.98
2018-11-23T09:48:15.768Z,22.73
2018-11-23T09:51:20.604Z,27.58
2018-11-23T09:54:25.115Z,10.00
2018-11-23T09:57:29.496Z,21.37
2018-11-23T10:00:35.035Z,11.00
2018-11-23T10:03:40.558Z,16.60
2018-11-23T10:06:45.273Z,11.50
2018-11-23T10:09:50.405Z,12.58
2018-11-23T10:13:23.206Z,14.28
2018-11-23T10:16:28.193Z,25.23
2018-11-23T10:19:46.507Z,12.53
2018-11-23T10:23:07.114Z,23.18
2018-11-23T10:26:16.593Z,18.60
2018-11-23T10:29:23.148Z,20.25
2018-11-23T10:32:30.546Z,19.15
2018-11-23T10:35:47.616Z,21.00
2018-11-23T10:38:55.104Z,25.10
2018-11-23T10:42:02.397Z,13.43
2018-11-23T10:45:09.423Z,16.23
2018-11-23T10:48:03.579Z,19.40
2018-11-23T10:51:17.310Z,30.17
2018-11-23T10:54:23.383Z,23.83
2018-11-23T10:57:30.022Z,21.35
2018-11-23T11:00:45.387Z,27.52
2018-11-23T11:04:04.215Z,23.15
2018-11-23T11:07:18.054Z,19.20
2018-11-23T11:10:32.878Z,24.40
2018-11-23T11:13:45.458Z,19.50
2018-11-23T11:16:54.420Z,26.37
2018-11-23T11:20:03.445Z,20.37
2018-11-23T11:22:56.260Z,20.40
2018-11-23T11:26:05.869Z,15.50
2018-11-23T11:29:18.335Z,17.75
2018-11-23T11:32:25.407Z,14.70
2018-11-23T11:35:32.377Z,27.70
2018-11-23T11:38:38.366Z,29.23
2018-11-23T11:41:42.169Z,22.67
2018-11-23T11:44:39.258Z,24.52
2018-11-23T11:47:43.799Z,27.02
2018-11-23T11:50:49.717Z,30.57
2018-11-23T11:53:54.130Z,27.70
2018-11-23T11:56:59.162Z,29.15
2018-11-23T12:00:03.551Z,27.80
2018-11-23T12:03:08.030Z,14.53
2018-11-23T12:06:12.533Z,28.80
2018-11-23T12:09:17.174Z,17.25
2018-11-23T12:12:21.619Z,23.00
2018-11-23T12:15:26.215Z,30.23
2018-11-23T12:18:31.582Z,16.97
2018-11-23T12:21:36.422Z,20.50
2018-11-23T12:24:40.933Z,29.75
2018-11-23T12:27:45.615Z,33.90
2018-11-23T12:30:50.342Z,18.52
2018-11-23T12:33:54.919Z,26.37
2018-11-23T12:36:59.493Z,18.57
2018-11-23T12:40:04.018Z,21.35
2018-11-23T12:43:12.102Z,27.22
2018-11-23T12:46:16.499Z,34.40
2018-11-23T12:49:20.970Z,28.12
2018-11-23T12:52:25.548Z,20.62
2018-11-23T12:55:30.537Z,23.18
2018-11-23T12:58:35.142Z,18.50
2018-11-23T13:01:39.890Z,20.57
2018-11-23T13:04:44.776Z,25.08
2018-11-23T13:07:50.352Z,31.17
2018-11-23T13:10:55.142Z,31.40
2018-11-23T13:14:00.733Z,27.73
2018-11-23T13:17:05.814Z,23.45
2018-11-23T13:20:12.889Z,30.62
2018-11-23T13:23:18.785Z,38.10
2018-11-23T13:26:27.213Z,28.23
2018-11-23T13:29:31.986Z,41.48
2018-11-23T13:32:37.780Z,50.00
2018-11-23T13:35:43.122Z,43.38
2018-11-23T13:38:48.092Z,35.33
2018-11-23T13:41:52.731Z,32.25
2018-11-23T13:44:57.931Z,26.60
2018-11-23T13:48:02.670Z,43.65
2018-11-23T13:51:07.939Z,42.17
2018-11-23T13:54:12.471Z,54.03
2018-11-23T13:57:17.928Z,61.23
2018-11-23T14:00:23.184Z,40.92
2018-11-23T14:03:27.672Z,45.08
2018-11-23T14:06:24.700Z,46.77
2018-11-23T14:09:29.347Z,44.03
2018-11-23T14:12:35.254Z,25.75
2018-11-23T14:15:44.067Z,53.73
2018-11-23T14:18:49.608Z,54.65
2018-11-23T14:21:53.994Z,71.25
2018-11-23T14:24:59.338Z,53.50
2018-11-23T14:28:04.423Z,57.65
2018-11-23T14:31:09.048Z,37.13
2018-11-23T14:34:18.235Z,71.15
2018-11-23T14:37:25.479Z,64.40
2018-11-23T14:40:30.881Z,59.88
2018-11-23T14:43:35.785Z,53.80
2018-11-23T14:46:40.240Z,59.65
2018-11-23T14:49:44.725Z,69.95
2018-11-23T14:52:49.491Z,45.52
2018-11-23T14:55:53.674Z,38.38
2018-11-23T14:58:58.014Z,52.62
2018-11-23T15:02:03.321Z,63.10
2018-11-23T15:05:08.579Z,43.70
2018-11-23T15:08:13.884Z,55.10
2018-11-23T15:11:20.318Z,47.17
2018-11-23T15:14:28.468Z,61.90
2018-11-23T15:17:36.770Z,61.37
2018-11-23T15:20:47.138Z,55.78
2018-11-23T15:23:54.273Z,62.67
2018-11-23T15:27:01.397Z,68.95
2018-11-23T15:30:07.837Z,67.35
2018-11-23T15:33:14.778Z,64.40
2018-11-23T15:36:20.790Z,47.60
2018-11-23T15:39:28.088Z,30.80
2018-11-23T15:42:33.291Z,66.22
2018-11-23T15:45:41.090Z,55.10
2018-11-23T15:48:46.072Z,67.10
2018-11-23T15:51:50.554Z,33.95
2018-11-23T15:54:55.930Z,37.88
2018-11-23T15:58:01.178Z,32.60
2018-11-23T16:01:07.109Z,46.10
2018-11-23T16:04:11.570Z,51.50
2018-11-23T16:07:16.063Z,37.53
2018-11-23T16:10:20.486Z,51.95
2018-11-23T16:13:25.887Z,44.15
2018-11-23T16:16:30.447Z,35.85
2018-11-23T16:19:34.914Z,36.15
2018-11-23T16:22:39.401Z,49.80
2018-11-23T16:25:44.657Z,49.55
2018-11-23T16:28:49.101Z,37.35
2018-11-23T16:31:53.672Z,35.20
2018-11-23T16:34:58.330Z,47.27
2018-11-23T16:38:02.890Z,34.70
2018-11-23T16:41:12.405Z,36.77
2018-11-23T16:44:16.981Z,36.45
2018-11-23T16:47:21.696Z,36.05
2018-11-23T16:50:26.209Z,35.43
2018-11-23T16:53:31.456Z,34.13
2018-11-23T16:56:35.922Z,47.13
2018-11-23T16:59:40.272Z,38.60
2018-11-23T17:02:45.794Z,31.80
2018-11-23T17:05:50.138Z,38.98
2018-11-23T17:08:46.870Z,42.33
2018-11-23T17:11:51.617Z,40.98
2018-11-23T17:14:54.312Z,39.92
2018-11-23T17:17:59.029Z,29.87
2018-11-23T17:21:04.535Z,31.90
2018-11-23T17:24:09.357Z,35.05
2018-11-23T17:27:14.119Z,28.32
2018-11-23T17:30:18.712Z,33.88
2018-11-23T17:33:23.744Z,40.70
2018-11-23T17:36:28.468Z,42.33
2018-11-23T17:39:33.989Z,26.60
2018-11-23T17:42:38.463Z,25.60
2018-11-23T17:45:50.777Z,42.40
2018-11-23T17:48:56.518Z,43.60
2018-11-23T17:52:01.816Z,43.52
2018-11-23T17:55:04.596Z,34.73
2018-11-23T17:58:09.756Z,40.65
2018-11-23T18:01:14.092Z,36.30
2018-11-23T18:04:19.097Z,41.35
2018-11-23T18:07:23.677Z,47.15
2018-11-23T18:10:32.953Z,30.48
2018-11-23T18:13:37.668Z,34.95
2018-11-23T18:16:41.984Z,37.28
2018-11-23T18:19:46.839Z,37.48
2018-11-23T18:22:51.169Z,28.32
2018-11-23T18:25:57.407Z,51.13
2018-11-23T18:29:01.778Z,42.38
2018-11-23T18:32:07.069Z,50.03
2018-11-23T18:35:12.501Z,54.42
2018-11-23T18:38:16.847Z,23.22
2018-11-23T18:41:23.057Z,47.60
2018-11-23T18:44:28.159Z,41.20
2018-11-23T18:47:25.029Z,27.17
2018-11-23T18:51:24.755Z,30.48
2018-11-23T18:54:29.368Z,41.33
2018-11-23T18:57:33.926Z,35.43
2018-11-23T19:00:38.785Z,30.25
2018-11-23T19:03:43.470Z,24.52
2018-11-23T19:06:52.362Z,44.18
2018-11-23T19:09:57.104Z,24.18
2018-11-23T19:13:02.161Z,30.27
2018-11-23T19:16:07.259Z,28.15
2018-11-23T19:19:12.201Z,40.00
2018-11-23T19:22:16.494Z,26.02
2018-11-23T19:25:21.632Z,43.50
2018-11-23T19:28:26.066Z,39.50
2018-11-23T19:31:30.939Z,45.58
2018-11-23T19:34:36.098Z,22.90
2018-11-23T19:37:41.918Z,33.13
2018-11-23T19:40:50.796Z,47.98
2018-11-23T19:43:55.900Z,33.05
2018-11-23T19:47:01.665Z,32.85
2018-11-23T19:50:07.629Z,36.42
2018-11-23T19:53:12.251Z,44.35
2018-11-23T19:56:16.823Z,38.42
2018-11-23T19:59:19.474Z,39.10
2018-11-23T20:02:27.773Z,37.05
2018-11-23T20:05:32.315Z,45.03
2018-11-23T20:08:37.797Z,39.10
2018-11-23T20:11:43.633Z,25.88
2018-11-23T20:14:48.752Z,33.98
2018-11-23T20:17:53.263Z,22.10
2018-11-23T20:20:58.043Z,23.10
2018-11-23T20:24:03.713Z,28.90
2018-11-23T20:27:09.140Z,51.33
2018-11-23T20:30:05.801Z,50.60
2018-11-23T20:33:10.638Z,46.48
2018-11-23T20:36:16.394Z,44.65
2018-11-23T20:39:22.546Z,47.62
2018-11-23T20:42:27.173Z,34.98
2018-11-23T20:45:32.342Z,45.45
2018-11-23T20:48:37.380Z,22.40
2018-11-23T20:51:42.257Z,37.25
2018-11-23T20:54:47.067Z,25.77
2018-11-23T20:57:52.686Z,36.10
2018-11-23T21:00:57.507Z,27.37
2018-11-23T21:03:54.777Z,30.35
2018-11-23T21:06:59.508Z,31.57
2018-11-23T21:10:04.661Z,25.00
2018-11-23T21:13:09.405Z,28.85
2018-11-23T21:16:12.070Z,24.45
2018-11-23T21:19:20.184Z,31.48
2018-11-23T21:22:24.955Z,29.12
2018-11-23T21:25:29.433Z,27.80
2018-11-23T21:28:26.456Z,31.48
2018-11-23T21:31:31.458Z,30.45
2018-11-23T21:34:35.873Z,27.93
2018-11-23T21:37:40.475Z,24.82
2018-11-23T21:40:48.887Z,32.35
2018-11-23T21:43:53.403Z,27.65
2018-11-23T21:46:58.226Z,44.75
2018-11-23T21:50:02.851Z,32.88
2018-11-23T21:53:07.509Z,28.12
2018-11-23T21:56:12.062Z,29.90
2018-11-23T21:59:17.696Z,39.10
2018-11-23T22:02:22.390Z,30.00
2018-11-23T22:05:26.935Z,32.05
2018-11-23T22:08:25.436Z,32.33
2018-11-23T22:11:30.296Z,29.92
2018-11-23T22:14:34.742Z,26.87
2018-11-23T22:17:38.027Z,36.40
2018-11-23T22:20:43.878Z,22.98
2018-11-23T22:23:48.342Z,24.20
2018-11-23T22:26:53.371Z,28.40
2018-11-23T22:29:57.872Z,21.82
2018-11-23T22:32:54.209Z,22.27
2018-11-23T22:35:59.151Z,24.02
2018-11-23T22:39:07.435Z,26.00
2018-11-23T22:42:12.518Z,22.58
2018-11-23T22:45:17.069Z,22.35
2018-11-23T22:48:21.580Z,21.25
2018-11-23T22:51:26.502Z,43.58
2018-11-23T22:54:30.883Z,49.42
2018-11-23T22:57:35.510Z,50.63
2018-11-23T23:00:57.110Z,45.67
2018-11-23T23:04:01.787Z,25.52
2018-11-23T23:07:07.559Z,28.80
2018-11-23T23:10:12.046Z,49.53
2018-11-23T23:13:17.108Z,50.15
2018-11-23T23:16:21.464Z,42.13
2018-11-23T23:19:27.490Z,49.77
2018-11-23T23:22:32.738Z,43.50
2018-11-23T23:25:37.151Z,20.20
2018-11-23T23:28:42.157Z,45.15
2018-11-23T23:31:46.820Z,18.77
2018-11-23T23:34:51.117Z,43.90
2018-11-23T23:37:55.663Z,48.13
2018-11-23T23:41:00.250Z,23.55
2018-11-23T23:44:04.665Z,19.12
2018-11-23T23:47:09.106Z,51.58
2018-11-23T23:50:13.822Z,23.25
2018-11-23T23:53:18.434Z,38.17
2018-11-23T23:56:23.328Z,38.28
2018-11-23T23:59:28.134Z,34.88
